ADDS METAR Data INFO
IDs: Format: Raw Decoded Include TAF

Data at: 0753 UTC 17 Oct 2017

KRQB 170734Z AUTO 15003KT 10SM CLR 03/03 A3014 RMK AO2 T00340025
KRQB 170714Z AUTO 15004KT 7SM CLR 03/03 A3015 RMK AO2 T00330025
KRQB 170655Z AUTO 14003KT 10SM CLR 04/03 A3015 RMK AO2 T00350025
KRQB 170634Z AUTO 00000KT 10SM CLR 03/02 A3015 RMK AO2 T00340024
KRQB 170614Z AUTO 00000KT 10SM CLR 04/03 A3015 RMK AO2 T00400029
KRQB 170555Z AUTO 16004KT 10SM CLR 04/03 A3015 RMK AO2 T00380027 10062 20038 401350037
KRQB 170534Z AUTO 16005KT 10SM CLR 04/03 A3014 RMK AO2 T00380027
KRQB 170514Z AUTO 15005KT 10SM CLR 04/03 A3015 RMK AO2 T00400027
KRQB 170455Z AUTO 15005KT 10SM CLR 05/03 A3015 RMK AO2 T00450029
KRQB 170434Z AUTO 17003KT 10SM CLR 05/03 A3015 RMK AO2 T00470031
KRQB 170414Z AUTO 00000KT 10SM CLR 04/03 A3016 RMK AO2 T00440031
KRQB 170355Z AUTO 00000KT 10SM CLR 05/03 A3017 RMK AO2 T00450028
KRQB 170334Z AUTO 00000KT 10SM CLR 05/03 A3017 RMK AO2 T00520030
KRQB 170314Z AUTO 00000KT 10SM CLR 05/03 A3017 RMK AO2 T00530030
KRQB 170254Z AUTO 00000KT 10SM CLR 04/03 A3018 RMK AO2 T00420027
KRQB 170234Z AUTO 00000KT 10SM CLR 04/03 A3018 RMK AO2 T00410027
KRQB 170215Z AUTO 00000KT 10SM CLR 05/03 A3018 RMK AO2 T00470026
KRQB 170154Z AUTO 00000KT 10SM CLR 06/03 A3018 RMK AO2 T00600027
KRQB 170134Z AUTO 00000KT 10SM CLR 06/03 A3017 RMK AO2 T00610029
KRQB 170115Z AUTO 00000KT 10SM CLR 06/03 A3018 RMK AO2 T00580030
KRQB 170054Z AUTO 00000KT 10SM CLR 06/03 A3019 RMK AO2 T00560031
KRQB 170034Z AUTO 00000KT 10SM CLR 06/03 A3019 RMK AO2 T00560029
KRQB 170015Z AUTO 20004KT 10SM CLR 05/03 A3020 RMK AO2 T00520030
KRQB 162354Z AUTO 22003KT 10SM CLR 06/03 A3020 RMK AO2 T00620032 10135 20062
KRQB 162334Z AUTO 00000KT 10SM CLR 07/03 A3020 RMK AO2 T00690030
KRQB 162315Z AUTO 00000KT 10SM CLR 08/03 A3020 RMK AO2 T00780030
KRQB 162254Z AUTO 25003KT 10SM CLR 09/02 A3020 RMK AO2 T00930022
KRQB 162234Z AUTO 25006KT 10SM CLR 11/02 A3020 RMK AO2 T01050016
KRQB 162215Z AUTO 25006KT 10SM CLR 11/02 A3021 RMK AO2 T01120016
KRQB 162154Z AUTO 25006KT 10SM CLR 12/02 A3021 RMK AO2 T01190015
KRQB 162134Z AUTO 26007KT 10SM CLR 12/02 A3021 RMK AO2 T01210015
KRQB 162115Z AUTO 28008KT 10SM SCT048 13/01 A3021 RMK AO2 T01280011
KRQB 162054Z AUTO 24011G15KT 10SM BKN050 13/01 A3021 RMK AO2 T01300010
KRQB 162035Z AUTO 24010G14KT 10SM SCT044 BKN050 13/02 A3021 RMK AO2 T01310015
KRQB 162014Z AUTO 26009G16KT 10SM SCT044 SCT050 13/02 A3021 RMK AO2 T01280020
KRQB 161954Z AUTO 24009G15KT 10SM SCT050 SCT060 13/02 A3021 RMK AO2 T01310020
KRQB 161935Z AUTO 28006KT 10SM SCT060 12/03 A3021 RMK AO2 T01220027
KRQB 161914Z AUTO 28010G14KT 10SM SCT060 13/02 A3021 RMK AO2 T01310018
KRQB 161854Z AUTO 24009G16KT 10SM SCT060 13/02 A3022 RMK AO2 T01280020
KRQB 161835Z AUTO 25007G15KT 10SM SCT050 13/03 A3022 RMK AO2 T01260030
KRQB 161814Z AUTO 27010G15KT 10SM SCT050 11/03 A3023 RMK AO2 T01130029
KRQB 161754Z AUTO 26006KT 10SM SCT030 SCT065 11/04 A3024 RMK AO2 T01080036 10123 20037
KRQB 161735Z AUTO 26011G14KT 10SM BKN030 BKN034 OVC065 11/04 A3025 RMK AO2 T01100039
KRQB 161714Z AUTO 24008G19KT 10SM BKN030 BKN038 12/04 A3026 RMK AO2 T01160041
KRQB 161654Z AUTO 24006KT 10SM SCT030 BKN038 11/04 A3026 RMK AO2 T01140035
KRQB 161635Z AUTO 22008KT 170V270 10SM SCT026 11/03 A3026 RMK AO2 T01140034
KRQB 161614Z AUTO 21007G15KT 140V240 10SM SCT026 11/03 A3027 RMK AO2 T01060032
KRQB 161554Z AUTO 19005G16KT 10SM SCT025 11/04 A3027 RMK AO2 T01070038
KRQB 161534Z AUTO 22009G16KT 10SM CLR 10/03 A3027 RMK AO2 T00990032
KRQB 161514Z AUTO 21009G16KT 10SM CLR 10/03 A3027 RMK AO2 T00950028
KRQB 161455Z AUTO 18005KT 10SM SCT085 09/04 A3026 RMK AO2 T00910038
KRQB 161434Z AUTO 23005KT 10SM BKN085 09/03 A3026 RMK AO2 T00890033
KRQB 161414Z AUTO 20004KT 10SM SCT085 08/03 A3027 RMK AO2 T00800032
KRQB 161355Z AUTO 21003KT 10SM CLR 07/04 A3027 RMK AO2 T00720040
KRQB 161334Z AUTO 00000KT 10SM CLR 06/04 A3027 RMK AO2 T00630042
KRQB 161314Z AUTO 00000KT 10SM CLR 05/04 A3026 RMK AO2 T00530043
KRQB 161255Z AUTO 00000KT 10SM SCT044 04/04 A3026 RMK AO2 T00440035
KRQB 161234Z AUTO 00000KT 10SM BKN044 04/04 A3026 RMK AO2 T00430035
KRQB 161214Z AUTO 00000KT 10SM SCT048 04/03 A3026 RMK AO2 T00390029
KRQB 161155Z AUTO 00000KT 10SM SCT048 BKN050 04/03 A3025 RMK AO2 70003 T00420031 10060 20042
KRQB 161134Z AUTO 23003KT 10SM OVC060 05/04 A3025 RMK AO2 T00470035
KRQB 161114Z AUTO 00000KT 10SM OVC060 05/03 A3024 RMK AO2 T00460034
KRQB 161055Z AUTO 22003KT 10SM OVC060 05/03 A3024 RMK AO2 T00470032
KRQB 161034Z AUTO 20003KT 10SM OVC060 05/04 A3024 RMK AO2 T00470037
KRQB 161014Z AUTO 00000KT 10SM SCT026 SCT032 BKN050 05/04 A3024 RMK AO2 T00450035
KRQB 160955Z AUTO 00000KT 10SM BKN050 BKN090 05/04 A3024 RMK AO2 T00520040
KRQB 160934Z AUTO 00000KT 10SM SCT042 BKN050 OVC055 06/04 A3024 RMK AO2 T00550042
KRQB 160914Z AUTO 24003KT 10SM OVC048 06/04 A3022 RMK AO2 T00550043
KRQB 160854Z AUTO 00000KT 10SM OVC050 06/04 A3022 RMK AO2 T00550041
KRQB 160834Z AUTO 00000KT 10SM SCT044 OVC050 06/04 A3021 RMK AO2 T00550042
KRQB 160815Z AUTO 00000KT 10SM BKN045 OVC060 06/04 A3020 RMK AO2 T00550041
KRQB 160754Z AUTO 00000KT 10SM -RA SCT040 SCT045 OVC050 06/04 A3021 RMK AO2 T00550040
KRQB 160734Z AUTO 00000KT 10SM SCT036 SCT044 OVC050 06/04 A3021 RMK AO2 T00570038
KRQB 160715Z AUTO 00000KT 7SM -RA SCT034 OVC044 06/04 A3021 RMK AO2 T00560037
KRQB 160654Z AUTO 00000KT 10SM -RA OVC044 06/04 A3020 RMK AO2 T00600035
KRQB 160634Z AUTO 00000KT 10SM SCT042 OVC047 06/04 A3019 RMK AO2 T00580036
KRQB 160614Z AUTO 00000KT 10SM SCT049 SCT060 BKN075 05/04 A3019 RMK AO2 T00530035
KRQB 160554Z AUTO 00000KT 10SM SCT048 BKN065 OVC090 06/03 A3019 RMK AO2 T00600032 10075 20058 401850058
KRQB 160534Z AUTO 00000KT 10SM -DZ SCT048 OVC065 06/04 A3018 RMK AO2 T00620038
KRQB 160515Z AUTO 00000KT 10SM BKN050 BKN065 OVC090 06/04 A3018 RMK AO2 T00590036
KRQB 160454Z AUTO 00000KT 10SM BKN050 OVC090 07/03 A3018 RMK AO2 T00650031
KRQB 160434Z AUTO 28003KT 10SM OVC060 07/03 A3017 RMK AO2 T00650031
KRQB 160415Z AUTO 00000KT 10SM OVC060 07/03 A3017 RMK AO2 T00650030
KRQB 160354Z AUTO 00000KT 10SM SCT050 OVC080 07/03 A3017 RMK AO2 T00660030
KRQB 160334Z AUTO 00000KT 10SM SCT046 OVC090 06/03 A3016 RMK AO2 T00640028
KRQB 160315Z AUTO 00000KT 10SM BKN046 BKN050 BKN090 06/03 A3016 RMK AO2 T00640027
KRQB 160254Z AUTO 32004KT 10SM SCT046 BKN055 BKN080 07/03 A3016 RMK AO2 T00660033
KRQB 160234Z AUTO 32004KT 10SM SCT046 BKN080 07/04 A3016 RMK AO2 T00670038
KRQB 160215Z AUTO 00000KT 10SM SCT048 SCT070 SCT080 07/04 A3015 RMK AO2 T00700043
KRQB 160154Z AUTO 29005KT 10SM SCT050 SCT070 OVC080 07/05 A3014 RMK AO2 T00740048
KRQB 160134Z AUTO 00000KT 10SM SCT043 BKN050 OVC080 08/05 A3014 RMK AO2 T00750050
KRQB 160115Z AUTO 31003KT 10SM OVC041 08/05 A3014 RMK AO2 T00750047
KRQB 160054Z AUTO 30005KT 10SM BKN039 OVC060 07/05 A3013 RMK AO2 T00730046
KRQB 160034Z AUTO 31004KT 10SM BKN060 07/05 A3012 RMK AO2 T00720045
KRQB 160015Z AUTO 32003KT 10SM SCT041 SCT060 BKN070 08/05 A3010 RMK AO2 T00750047
KRQB 152354Z AUTO 30004KT 10SM SCT041 BKN050 08/05 A3011 RMK AO2 T00750050 10110 20075
KRQB 152334Z AUTO 30004KT 10SM SCT020 SCT039 SCT050 08/05 A3009 RMK AO2 T00760049
KRQB 152315Z AUTO 31007KT 7SM UP BKN022 BKN038 OVC055 08/05 A3008 RMK AO2 T00840051
KRQB 152254Z AUTO 32003KT 10SM BKN022 OVC029 09/05 A3007 RMK AO2 T00880050
KRQB 152234Z AUTO 33004KT 10SM BKN027 OVC033 09/05 A3005 RMK AO2 T00890047
KRQB 152215Z AUTO 31006KT 10SM BKN031 BKN040 OVC046 09/04 A3004 RMK AO2 T00930035
KRQB 152154Z AUTO 34008G15KT 10SM SCT035 OVC045 10/04 A3003 RMK AO2 T00950035
KRQB 152134Z AUTO 36008G18KT 10SM SCT031 SCT038 OVC045 10/03 A3001 RMK AO2 T00980034
KRQB 152115Z AUTO 35010G18KT 10SM SCT031 OVC047 10/04 A3000 RMK AO2 T00980038
KRQB 152054Z AUTO 35012G20KT 320V020 10SM BKN031 OVC041 10/04 A2998 RMK AO2 T00990039
KRQB 152034Z AUTO 34010G22KT 10SM BKN029 OVC037 10/05 A2997 RMK AO2 T01000045
KRQB 152015Z AUTO 34012G23KT 10SM BKN027 BKN032 OVC037 10/05 A2995 RMK AO2 T01030047
KRQB 151954Z AUTO 34013G20KT 10SM SCT022 SCT027 BKN033 11/06 A2994 RMK AO2 T01050058